createdAt,value
2022-08-17T00:01:27.757Z,19.27
2022-08-17T00:04:13.403Z,20.19
2022-08-17T00:07:02.191Z,19.30
2022-08-17T00:09:47.638Z,20.22
2022-08-17T00:12:44.565Z,19.87
2022-08-17T00:15:30.199Z,19.25
2022-08-17T00:18:57.549Z,20.28
2022-08-17T00:21:23.914Z,19.94
2022-08-17T00:24:11.167Z,19.30
2022-08-17T00:26:56.871Z,19.20
2022-08-17T00:29:42.294Z,20.22
2022-08-17T00:33:10.813Z,19.97
2022-08-17T00:35:33.937Z,19.15
2022-08-17T00:38:20.214Z,19.30
2022-08-17T00:41:12.222Z,19.21
2022-08-17T00:44:03.940Z,20.04
2022-08-17T00:46:49.580Z,19.13
2022-08-17T00:49:34.987Z,20.00
2022-08-17T00:52:27.629Z,19.95
2022-08-17T00:55:13.515Z,19.74
2022-08-17T00:58:03.234Z,19.92
2022-08-17T01:00:49.875Z,19.56
2022-08-17T01:03:37.410Z,19.29
2022-08-17T01:06:24.057Z,19.86
2022-08-17T01:09:09.824Z,19.68
2022-08-17T01:11:55.151Z,19.25
2022-08-17T01:14:41.376Z,18.89
2022-08-17T01:17:28.560Z,19.84
2022-08-17T01:20:14.107Z,20.00
2022-08-17T01:23:01.650Z,19.24
2022-08-17T01:25:50.939Z,19.76
2022-08-17T01:28:55.168Z,20.16
2022-08-17T01:31:49.230Z,20.19
2022-08-17T01:34:43.671Z,20.01
2022-08-17T01:37:39.714Z,20.24
2022-08-17T01:40:39.199Z,19.46
2022-08-17T01:43:32.745Z,20.19
2022-08-17T01:46:33.075Z,20.15
2022-08-17T01:49:18.855Z,19.63
2022-08-17T01:52:08.564Z,20.02
2022-08-17T01:54:54.799Z,19.14
2022-08-17T01:57:40.077Z,20.16
2022-08-17T02:00:27.446Z,20.14
2022-08-17T02:03:34.800Z,19.44
2022-08-17T02:06:27.449Z,20.03
2022-08-17T02:09:16.745Z,19.94
2022-08-17T02:12:37.337Z,19.13
2022-08-17T02:15:12.497Z,20.20
2022-08-17T02:17:58.225Z,20.24
2022-08-17T02:20:43.905Z,20.00
2022-08-17T02:23:32.303Z,20.10
2022-08-17T02:26:24.022Z,19.79
2022-08-17T02:29:22.542Z,20.23
2022-08-17T02:32:27.996Z,19.99
2022-08-17T02:35:14.546Z,20.18
2022-08-17T02:38:07.379Z,20.19
2022-08-17T02:40:53.119Z,19.65
2022-08-17T02:43:38.546Z,19.65
2022-08-17T02:46:24.036Z,19.53
2022-08-17T02:49:09.758Z,20.09
2022-08-17T02:51:58.246Z,20.05
2022-08-17T02:54:45.153Z,19.87
2022-08-17T02:57:30.717Z,20.11
2022-08-17T03:00:23.271Z,20.09
2022-08-17T03:03:10.950Z,19.90
2022-08-17T03:05:56.827Z,20.10
2022-08-17T03:08:42.797Z,20.11
2022-08-17T03:11:29.077Z,20.09
2022-08-17T03:14:14.877Z,19.50
2022-08-17T03:17:01.258Z,19.96
2022-08-17T03:19:46.674Z,19.70
2022-08-17T03:22:38.483Z,19.91
2022-08-17T03:25:30.738Z,19.92
2022-08-17T03:28:17.378Z,19.71
2022-08-17T03:31:03.921Z,19.85
2022-08-17T03:33:53.376Z,19.55
2022-08-17T03:36:40.249Z,19.04
2022-08-17T03:39:25.850Z,19.65
2022-08-17T03:42:31.578Z,18.85
2022-08-17T03:45:44.120Z,19.79
2022-08-17T03:48:49.316Z,19.87
2022-08-17T03:51:55.877Z,19.87
2022-08-17T03:55:02.522Z,19.94
2022-08-17T03:57:49.363Z,19.87
2022-08-17T04:00:36.770Z,18.94
2022-08-17T04:03:25.984Z,19.87
2022-08-17T04:06:12.018Z,19.95
2022-08-17T04:25:35.477Z,18.12
2022-08-17T04:28:21.191Z,18.54
2022-08-17T04:31:07.794Z,19.34
2022-08-17T04:33:54.608Z,18.18
2022-08-17T04:36:40.805Z,19.52
2022-08-17T04:39:37.296Z,19.61
2022-08-17T04:42:22.787Z,19.61
2022-08-17T04:45:08.397Z,19.70
2022-08-17T04:47:57.007Z,19.77
2022-08-17T04:50:47.324Z,19.82
2022-08-17T04:53:33.084Z,19.85
2022-08-17T04:56:19.435Z,19.88
2022-08-17T04:59:08.978Z,19.90
2022-08-17T05:01:57.630Z,19.92
2022-08-17T05:04:46.246Z,20.05
2022-08-17T05:07:33.175Z,20.07
2022-08-17T05:10:20.810Z,20.12
2022-08-17T05:13:15.393Z,20.17
2022-08-17T05:16:03.957Z,20.18
2022-08-17T05:18:50.131Z,19.97
2022-08-17T05:21:35.648Z,19.40
2022-08-17T05:24:38.528Z,20.17
2022-08-17T05:27:30.842Z,20.14
2022-08-17T05:30:21.730Z,19.96
2022-08-17T05:33:10.965Z,19.71
2022-08-17T05:35:59.039Z,20.22
2022-08-17T05:38:47.556Z,20.21
2022-08-17T05:41:34.052Z,20.02
2022-08-17T05:44:19.565Z,20.18
2022-08-17T05:47:07.344Z,20.18
2022-08-17T05:49:57.409Z,20.01
2022-08-17T05:52:46.112Z,20.19
2022-08-17T05:56:30.276Z,20.22
2022-08-17T05:59:45.346Z,20.23
2022-08-17T06:02:51.482Z,19.89
2022-08-17T06:05:52.224Z,20.32
2022-08-17T06:08:56.641Z,19.94
2022-08-17T06:11:47.886Z,20.35
2022-08-17T06:15:09.655Z,20.40
2022-08-17T06:17:59.983Z,20.42
2022-08-17T06:20:52.956Z,20.40
2022-08-17T06:23:49.797Z,19.91
2022-08-17T06:26:43.259Z,20.37
2022-08-17T06:29:38.265Z,19.36
2022-08-17T06:32:25.150Z,20.29
2022-08-17T06:35:42.538Z,20.32
2022-08-17T06:38:37.261Z,20.32
2022-08-17T06:41:52.368Z,20.28
2022-08-17T06:44:51.209Z,20.14
2022-08-17T06:47:49.423Z,20.14
2022-08-17T06:50:38.866Z,20.38
2022-08-17T06:53:37.667Z,20.15
2022-08-17T06:56:52.716Z,20.49
2022-08-17T06:59:56.786Z,20.23
2022-08-17T07:02:51.339Z,20.51
2022-08-17T07:05:53.063Z,20.53
2022-08-17T07:08:45.858Z,20.57
2022-08-17T07:11:31.449Z,20.59
2022-08-17T07:15:01.992Z,20.55
2022-08-17T07:17:50.437Z,20.55
2022-08-17T07:20:43.500Z,20.50
2022-08-17T07:23:44.656Z,20.26
2022-08-17T07:26:30.225Z,19.71
2022-08-17T07:29:19.692Z,20.58
2022-08-17T07:32:06.355Z,20.56
2022-08-17T07:35:23.620Z,20.63
2022-08-17T07:38:31.635Z,20.64
2022-08-17T07:41:20.761Z,19.72
2022-08-17T07:44:17.180Z,20.63
2022-08-17T07:47:35.892Z,20.68
2022-08-17T07:50:31.984Z,20.72
2022-08-17T07:53:24.591Z,20.75
2022-08-17T07:56:34.522Z,20.81
2022-08-17T07:59:24.952Z,20.85
2022-08-17T08:02:40.762Z,20.90
2022-08-17T08:05:50.375Z,19.69
2022-08-17T08:08:45.769Z,20.10
2022-08-17T08:11:41.265Z,21.12
2022-08-17T08:14:40.667Z,21.15
2022-08-17T08:17:35.874Z,21.15
2022-08-17T08:20:53.870Z,21.17
2022-08-17T08:24:03.512Z,21.11
2022-08-17T08:27:02.951Z,21.19
2022-08-17T08:30:08.437Z,21.19
2022-08-17T08:33:03.226Z,21.02
2022-08-17T08:36:00.081Z,20.38
2022-08-17T08:39:04.652Z,20.97
2022-08-17T08:42:20.823Z,20.43
2022-08-17T08:45:19.726Z,21.24
2022-08-17T08:48:52.877Z,21.31
2022-08-17T08:51:51.971Z,21.34
2022-08-17T08:54:47.639Z,21.23
2022-08-17T08:58:07.289Z,21.47
2022-08-17T09:00:58.708Z,21.53
2022-08-17T09:04:24.746Z,20.68
2022-08-17T09:07:39.074Z,21.67
2022-08-17T09:12:02.643Z,21.74
2022-08-17T09:15:38.264Z,21.84
2022-08-17T09:19:01.747Z,21.67
2022-08-17T09:22:02.410Z,21.96
2022-08-17T09:25:06.837Z,21.98
2022-08-17T09:28:01.650Z,22.10
2022-08-17T09:30:55.174Z,21.79
2022-08-17T09:33:46.052Z,21.50
2022-08-17T09:36:41.040Z,22.31
2022-08-17T09:39:34.858Z,22.34
2022-08-17T09:42:32.954Z,21.84
2022-08-17T09:45:51.204Z,22.34
2022-08-17T09:48:57.303Z,22.06
2022-08-17T09:51:52.228Z,21.26
2022-08-17T09:54:40.970Z,21.57
2022-08-17T09:57:59.084Z,22.15
2022-08-17T10:00:56.264Z,21.32
2022-08-17T10:04:03.285Z,22.02
2022-08-17T10:07:01.088Z,21.90
2022-08-17T10:10:14.351Z,22.03
2022-08-17T10:13:32.235Z,21.77
2022-08-17T10:16:43.878Z,22.03
2022-08-17T10:19:54.268Z,21.74
2022-08-17T10:23:16.030Z,21.69
2022-08-17T10:26:13.561Z,21.98
2022-08-17T10:29:01.593Z,22.01
2022-08-17T10:31:53.431Z,21.22
2022-08-17T10:34:47.585Z,22.06
2022-08-17T10:37:49.413Z,22.11
2022-08-17T10:41:12.049Z,22.16
2022-08-17T10:44:40.424Z,-143.01
2022-08-17T10:47:15.408Z,-143.01
2022-08-17T10:50:42.617Z,-143.01
2022-08-17T10:53:31.348Z,-143.01
2022-08-17T10:56:18.937Z,-143.01
2022-08-17T10:59:04.182Z,-143.01
2022-08-17T11:01:49.608Z,-143.01
2022-08-17T11:05:06.368Z,-143.01
2022-08-17T11:07:54.671Z,-143.01
2022-08-17T11:10:52.718Z,-143.01
2022-08-17T11:14:08.760Z,-143.01
2022-08-17T11:17:03.655Z,-143.01
2022-08-17T11:19:54.737Z,-143.01
2022-08-17T11:22:43.110Z,-143.01
2022-08-17T11:25:56.807Z,-143.01
2022-08-17T11:28:52.897Z,-143.01
2022-08-17T11:31:43.455Z,-143.01
2022-08-17T11:34:31.720Z,-143.01
2022-08-17T11:37:35.845Z,-143.01
2022-08-17T11:40:42.060Z,-143.01
2022-08-17T11:43:43.741Z,-143.01
2022-08-17T11:47:09.735Z,-143.01
2022-08-17T11:50:27.976Z,-143.01
2022-08-17T11:53:49.818Z,-143.01
2022-08-17T11:56:43.299Z,-143.01
2022-08-17T11:59:36.020Z,-143.01
2022-08-17T12:02:32.689Z,-143.01
2022-08-17T12:05:21.140Z,-143.01
2022-08-17T12:08:19.695Z,-143.01
2022-08-17T12:12:11.009Z,-143.01
2022-08-17T12:15:11.500Z,-143.01
2022-08-17T12:17:58.359Z,-143.01
2022-08-17T12:20:56.659Z,-143.01
2022-08-17T12:23:54.975Z,-143.01
2022-08-17T12:26:44.017Z,-143.01
2022-08-17T12:29:35.182Z,-143.01
2022-08-17T12:32:28.286Z,-143.01
2022-08-17T12:35:33.096Z,-143.01
2022-08-17T12:38:31.916Z,-143.01
2022-08-17T12:41:40.844Z,-143.01
2022-08-17T12:44:44.813Z,-143.01
2022-08-17T12:47:37.341Z,-143.01
2022-08-17T12:50:28.505Z,-143.01
2022-08-17T12:53:24.057Z,-143.01
2022-08-17T12:56:13.316Z,-143.01
2022-08-17T12:58:59.942Z,-143.01
2022-08-17T13:01:48.286Z,-143.01
2022-08-17T13:04:33.524Z,-143.01
2022-08-17T13:07:42.617Z,-143.01
2022-08-17T13:10:33.299Z,-143.01
2022-08-17T13:13:24.692Z,-143.01
2022-08-17T13:16:14.329Z,-143.01
2022-08-17T13:19:09.664Z,-143.01
2022-08-17T13:21:59.139Z,-143.01
2022-08-17T13:24:54.181Z,-143.01
2022-08-17T13:27:43.145Z,-143.01
2022-08-17T13:30:32.593Z,-143.01
2022-08-17T13:33:43.239Z,-143.01
2022-08-17T13:38:51.717Z,23.02
2022-08-17T13:41:38.201Z,23.68
2022-08-17T13:44:40.601Z,23.77
2022-08-17T13:47:27.539Z,23.76
2022-08-17T13:50:20.957Z,23.65
2022-08-17T13:53:23.139Z,22.94
2022-08-17T13:56:37.407Z,22.75
2022-08-17T13:59:55.126Z,23.64
2022-08-17T14:02:43.892Z,23.60
2022-08-17T14:05:31.727Z,22.69
2022-08-17T14:08:20.771Z,23.69
2022-08-17T14:11:06.669Z,23.64
2022-08-17T14:13:52.191Z,23.79
2022-08-17T14:16:41.633Z,23.67
2022-08-17T14:19:26.956Z,23.91
2022-08-17T14:22:25.656Z,23.98
2022-08-17T14:25:13.956Z,23.58
2022-08-17T14:27:59.982Z,23.82
2022-08-17T14:30:46.371Z,23.21
2022-08-17T14:33:31.931Z,23.92
2022-08-17T14:36:17.718Z,23.89
2022-08-17T14:39:03.170Z,23.17
2022-08-17T14:41:49.087Z,23.71
2022-08-17T14:44:34.950Z,23.98
2022-08-17T14:47:20.809Z,23.77
2022-08-17T14:50:11.330Z,23.91
2022-08-17T14:52:58.114Z,23.94
2022-08-17T14:55:46.998Z,23.92
2022-08-17T14:58:33.192Z,23.86
2022-08-17T15:01:20.488Z,23.62
2022-08-17T15:04:06.312Z,23.66
2022-08-17T15:06:51.589Z,23.56
2022-08-17T15:09:36.958Z,23.72
2022-08-17T15:12:26.441Z,23.50
2022-08-17T15:15:17.998Z,23.59
2022-08-17T15:18:03.846Z,22.50
2022-08-17T15:20:50.262Z,23.23
2022-08-17T15:23:36.438Z,22.57
2022-08-17T15:26:26.229Z,22.38
2022-08-17T15:29:11.853Z,22.44
2022-08-17T15:32:00.570Z,23.24
2022-08-17T15:34:46.475Z,22.46
2022-08-17T15:37:32.205Z,22.71
2022-08-17T15:40:18.142Z,23.49
2022-08-17T15:43:08.587Z,23.56
2022-08-17T15:46:02.259Z,22.63
2022-08-17T15:48:53.407Z,23.61
2022-08-17T15:51:38.981Z,23.64
2022-08-17T15:54:24.351Z,23.67
2022-08-17T15:57:09.731Z,23.31
2022-08-17T15:59:58.751Z,23.63
2022-08-17T16:03:44.716Z,23.25
2022-08-17T16:05:51.400Z,23.48
2022-08-17T16:08:38.641Z,22.68
2022-08-17T16:11:26.015Z,22.94
2022-08-17T16:14:11.367Z,22.51
2022-08-17T16:16:59.896Z,23.44
2022-08-17T16:19:46.878Z,23.42
2022-08-17T16:22:36.441Z,23.20
2022-08-17T16:25:52.651Z,23.40
2022-08-17T16:28:36.375Z,23.40
2022-08-17T16:31:22.447Z,22.53
2022-08-17T16:34:17.549Z,23.23
2022-08-17T16:37:04.478Z,23.39
2022-08-17T16:39:50.208Z,23.34
2022-08-17T16:42:38.579Z,23.19
2022-08-17T16:45:27.503Z,23.09
2022-08-17T16:48:13.066Z,22.43
2022-08-17T16:51:02.951Z,23.31
2022-08-17T16:53:57.887Z,23.25
2022-08-17T16:56:46.438Z,23.24
2022-08-17T16:59:41.917Z,23.13
2022-08-17T17:02:37.174Z,23.14
2022-08-17T17:05:28.489Z,23.20
2022-08-17T17:08:22.970Z,23.18
2022-08-17T17:11:23.084Z,23.11
2022-08-17T17:14:20.234Z,23.02
2022-08-17T17:17:33.503Z,22.96
2022-08-17T17:20:29.008Z,22.86
2022-08-17T17:23:34.339Z,22.84
2022-08-17T17:26:23.718Z,22.77
2022-08-17T17:29:09.056Z,22.76
2022-08-17T17:32:20.783Z,22.68
2022-08-17T17:37:57.260Z,21.70
2022-08-17T17:40:47.362Z,21.76
2022-08-17T17:43:39.739Z,21.64
2022-08-17T17:46:31.388Z,21.56
2022-08-17T17:49:18.450Z,21.65
2022-08-17T17:52:16.903Z,22.36
2022-08-17T17:55:15.558Z,22.40
2022-08-17T17:58:13.443Z,21.59
2022-08-17T18:01:33.303Z,22.28
2022-08-17T18:04:23.588Z,22.01
2022-08-17T18:07:31.438Z,22.21
2022-08-17T18:10:49.011Z,22.23
2022-08-17T18:14:14.758Z,22.24
2022-08-17T18:17:02.194Z,21.39
2022-08-17T18:19:48.309Z,22.17
2022-08-17T18:22:34.174Z,21.94
2022-08-17T18:25:59.525Z,22.08
2022-08-17T18:28:50.766Z,21.96
2022-08-17T18:31:36.201Z,20.90
2022-08-17T18:37:45.069Z,21.33
2022-08-17T18:40:34.643Z,20.76
2022-08-17T18:43:44.161Z,21.23
2022-08-17T18:46:40.149Z,21.13
2022-08-17T18:49:28.433Z,20.96
2022-08-17T18:52:30.325Z,20.53
2022-08-17T18:55:15.909Z,21.01
2022-08-17T18:58:20.326Z,21.00
2022-08-17T19:01:19.053Z,20.15
2022-08-17T19:04:05.580Z,19.95
2022-08-17T19:07:06.888Z,19.96
2022-08-17T19:10:28.834Z,20.98
2022-08-17T19:13:38.223Z,20.33
2022-08-17T19:17:01.086Z,20.84
2022-08-17T19:19:54.544Z,20.72
2022-08-17T19:23:08.187Z,20.59
2022-08-17T19:25:58.470Z,20.59
2022-08-17T19:28:53.218Z,19.59
2022-08-17T19:31:38.872Z,19.92
2022-08-17T19:34:30.242Z,20.52
2022-08-17T19:37:48.194Z,20.76
2022-08-17T19:40:54.138Z,20.62
2022-08-17T19:43:55.520Z,20.76
2022-08-17T19:46:56.324Z,20.93
2022-08-17T19:50:01.336Z,21.01
2022-08-17T19:53:00.426Z,20.03
2022-08-17T19:56:14.867Z,21.07
2022-08-17T19:59:11.293Z,21.07
2022-08-17T20:02:02.934Z,21.03
2022-08-17T20:04:51.950Z,19.95
2022-08-17T20:07:53.882Z,20.79
2022-08-17T20:10:54.821Z,20.67
2022-08-17T20:13:49.596Z,20.04
2022-08-17T20:16:35.354Z,20.19
2022-08-17T20:19:27.520Z,20.43
2022-08-17T20:22:29.034Z,20.07
2022-08-17T20:26:03.798Z,20.40
2022-08-17T20:29:20.212Z,19.38
2022-08-17T20:32:31.039Z,20.41
2022-08-17T20:35:28.612Z,19.85
2022-08-17T20:38:54.405Z,20.41
2022-08-17T20:42:05.110Z,20.35
2022-08-17T20:44:58.279Z,20.30
2022-08-17T20:48:07.746Z,20.26
2022-08-17T20:51:03.190Z,19.37
2022-08-17T20:53:53.508Z,20.14
2022-08-17T20:56:52.022Z,19.49
2022-08-17T20:59:43.728Z,19.02
2022-08-17T21:02:32.311Z,20.01
2022-08-17T21:05:32.447Z,20.00
2022-08-17T21:08:45.273Z,19.85
2022-08-17T21:12:02.890Z,19.86
2022-08-17T21:15:01.504Z,19.99
2022-08-17T21:17:59.871Z,19.34
2022-08-17T21:21:19.739Z,19.93
2022-08-17T21:24:08.382Z,19.90
2022-08-17T21:27:04.021Z,19.90
2022-08-17T21:30:14.964Z,19.89
2022-08-17T21:33:21.563Z,19.42
2022-08-17T21:36:11.716Z,19.05
2022-08-17T21:39:06.656Z,19.84
2022-08-17T21:41:55.911Z,18.82
2022-08-17T21:44:49.403Z,19.69
2022-08-17T21:47:35.085Z,19.69
2022-08-17T21:50:23.768Z,19.37
2022-08-17T21:53:14.711Z,18.81
2022-08-17T21:56:00.902Z,19.59
2022-08-17T21:58:55.798Z,19.59
2022-08-17T22:01:43.080Z,19.54
2022-08-17T22:04:34.589Z,18.64
2022-08-17T22:07:38.365Z,18.72
2022-08-17T22:10:31.821Z,19.49
2022-08-17T22:13:17.707Z,19.46
2022-08-17T22:16:15.695Z,19.42
2022-08-17T22:19:14.566Z,19.21
2022-08-17T22:22:05.651Z,19.29
2022-08-17T22:24:56.880Z,18.93
2022-08-17T22:27:52.139Z,19.37
2022-08-17T22:31:00.349Z,19.35
2022-08-17T22:33:57.883Z,19.33
2022-08-17T22:36:43.585Z,18.28
2022-08-17T22:39:28.875Z,19.32
2022-08-17T22:42:15.344Z,19.26
2022-08-17T22:45:00.782Z,18.53
2022-08-17T22:47:48.910Z,18.95
2022-08-17T22:50:34.696Z,18.08
2022-08-17T22:53:41.988Z,18.06
2022-08-17T22:56:46.036Z,18.92
2022-08-17T22:59:50.295Z,18.28
2022-08-17T23:02:36.282Z,18.16
2022-08-17T23:05:43.091Z,19.07
2022-08-17T23:08:28.387Z,19.34
2022-08-17T23:11:15.020Z,19.30
2022-08-17T23:14:01.405Z,19.18
2022-08-17T23:16:50.968Z,18.48
2022-08-17T23:19:36.428Z,18.66
2022-08-17T23:22:21.714Z,18.51
2022-08-17T23:25:07.947Z,18.75
2022-08-17T23:27:53.380Z,19.62
2022-08-17T23:30:42.574Z,19.60
2022-08-17T23:33:34.437Z,18.39
2022-08-17T23:36:20.147Z,19.65
2022-08-17T23:39:06.715Z,19.61
2022-08-17T23:41:53.530Z,19.44
2022-08-17T23:44:40.973Z,19.71
2022-08-17T23:47:26.596Z,19.71
2022-08-17T23:50:12.009Z,19.60
2022-08-17T23:52:57.928Z,19.66
2022-08-17T23:55:43.360Z,19.45
2022-08-17T23:58:29.431Z,18.54
